AKDT,Max TemperatureF,Mean TemperatureF,Min TemperatureF,Max Dew PointF,MeanDew PointF,Min DewpointF,Max Humidity, Mean Humidity, Min Humidity, Max Sea Level PressureIn, Mean Sea Level PressureIn, Min Sea Level PressureIn, Max VisibilityMiles, Mean VisibilityMiles, Min VisibilityMiles, Max Wind SpeedMPH, Mean Wind SpeedMPH, Max Gust SpeedMPH,PrecipitationIn, CloudCover, Events, WindDirDegrees
2013-5-1,44,40,37,37,34,30,87,78,70,30.35,30.20,30.11,10,8,5,24,17,37,0.57,8,,112
2013-5-2,46,44,42,45,41,37,93,85,76,30.54,30.36,30.19,10,9,4,18,9,25,0.38,8,,108
2013-5-3,53,48,42,45,42,39,93,81,58,30.61,30.54,30.44,10,9,0,17,4,22,0.06,7,,118
2013-5-4,51,48,46,46,44,43,93,87,82,30.43,30.40,30.34,10,10,6,16,8,20,0.01,8,,81
2013-5-5,57,50,44,46,44,43,93,84,67,30.34,30.17,30.01,10,7,0,9,5,,0.00,6,,273
2013-5-6,53,48,42,43,40,36,87,75,58,30.20,30.12,30.01,10,10,4,10,5,,0.00,6,,295
2013-5-7,55,47,39,39,37,34,87,69,51,30.20,30.15,30.08,10,10,10,12,4,,0.00,0,,298
2013-5-8,60,48,37,39,37,32,87,64,39,30.20,30.14,30.11,10,10,10,9,4,,0.00,0,,307
2013-5-9,60,50,41,41,39,36,87,64,45,30.26,30.23,30.20,10,10,10,8,5,,0.00,0,,45
2013-5-10,57,48,39,45,41,34,87,71,55,30.24,30.16,30.05,10,10,10,10,4,,0.00,1,,190
2013-5-11,55,52,48,48,45,41,88,80,71,30.04,29.86,29.71,10,10,7,16,6,23,0.17,7,,127
2013-5-12,55,50,46,48,46,45,93,85,72,29.70,29.66,29.62,10,9,3,14,6,16,0.07,8,,106
2013-5-13,53,50,48,45,43,39,87,77,62,29.80,29.72,29.65,10,10,7,15,11,22,0.00,8,,124
2013-5-14,48,46,44,45,41,39,87,80,71,29.96,29.91,29.80,10,10,9,16,7,21,0.30,8,,126
2013-5-15,53,48,44,46,43,39,93,85,71,30.03,29.98,29.93,10,10,10,8,4,,0.03,8,,119
2013-5-16,53,50,46,48,45,45,93,84,76,30.04,30.00,29.92,10,10,5,10,5,,0.04,8,,112
2013-5-17,53,50,48,48,45,43,93,82,76,29.91,29.84,29.79,10,10,9,14,8,18,0.09,8,,112
2013-5-18,48,44,41,46,40,28,93,77,53,30.36,30.03,29.80,10,9,3,17,10,23,0.33,8,,168
2013-5-19,44,38,33,36,33,28,87,76,53,30.54,30.49,30.37,10,10,7,13,7,17,0.14,8,,133
2013-5-20,51,44,37,36,34,32,87,69,50,30.52,30.37,30.22,10,10,10,14,6,18,0.00,5,,312
2013-5-21,60,52,44,37,34,28,66,50,29,30.22,30.09,29.99,10,10,10,15,7,28,0.00,1,,326
2013-5-22,62,54,46,39,36,34,66,50,37,30.04,30.01,29.99,10,10,10,12,7,,0.00,0,,283
2013-5-23,62,54,46,43,38,36,71,54,39,30.03,29.97,29.91,10,10,10,10,5,,0.00,0,,288
2013-5-24,60,54,48,45,43,39,82,67,52,30.05,29.97,29.93,10,10,10,9,3,,0.00,4,,263
2013-5-25,59,54,48,48,46,45,93,77,63,30.08,30.05,30.01,10,10,9,7,2,,0.00,7,,238
2013-5-26,60,56,51,48,47,45,82,76,59,30.03,29.96,29.91,10,10,10,7,3,,0.00,7,,338
2013-5-27,64,57,50,48,47,45,82,71,56,29.90,29.77,29.66,10,10,10,12,3,,0.00,4,,262
2013-5-28,73,60,48,48,46,43,87,64,35,29.67,29.61,29.55,10,10,10,14,6,,0.00,3,,174
2013-5-29,57,52,46,48,46,43,87,77,67,29.89,29.78,29.61,10,10,8,12,4,16,0.05,7,,105
2013-5-30,60,52,44,48,46,41,88,79,59,30.11,29.98,29.89,10,9,3,9,3,,0.12,7,,293
2013-5-31,51,50,48,48,45,45,93,84,76,30.30,30.24,30.12,10,10,4,8,2,,0.29,8,,328